Lake Swannanoa, New Jersey
Current Conditions -  °F | °C
As of 2:53 PM on Wednesday 28 Jan 2015 (Local Time) from KFWN Reporting Station
Clear Clear  
Wind Chill: 22°   Ceiling: Unl
Heat Index: 31°   Visibility: 10mi
Dew Point:   Wind: 10mph
Humidity: 32%   Direction: 350°N
Pressure: 30.08"   Gusts: NA
Location:  41.0321°N, 74.5162°W
Report Text: KFWN 281953Z AUTO 35009KT 300V030 10SM CLR M01/M16 A3008 RMK AO2 UPE26 SLP194 P0000 T10061156
Loading
Personal Weather Stations






























Interactive Weather Map New forecast layout! Learn more

10-Day Weather Forecast

Advertisements
Track Severe Weather on mobile